• Join FlightAware (Why Join?)
  • Login
  • US Flag 
10:17AM EDT


 

Airport Tracker/Info


-or-


 

Live Flight TrackerFlight Track Log ✈ AAL963 ✈ 29-Jan-2014 ✈ KDFW - SBGR / GRU

Flight Track Log - Related Links

Times and Time Zones

All times are in EST time to prevent confusion due to time zone crossing. See the AAL963 flight status page for this flight to view local times or setup timezone preferences in your user account.

Time Position Orientation Groundspeed Altitude Reporting Facility
EST Latitude Longitude Course Direction KTS MPH feet Rate Location/Type
10:08PM 32.8629 -97.0262 164° South 170 196 2,300  Level FlightAware ADS-B (KAFW)
10:09PM 32.8461 -97.0194 161° South 202 232 2,500 1,020 Climbing FlightAware ADS-B (KAFW)
10:09PM 32.8445 -97.0187 160° South 219 252 3,000 1,620 Climbing FlightAware ADS-B (KAFW)
10:09PM 32.8217 -97.0083 159° South 227 261 3,500 2,340 Climbing FlightAware ADS-B (KAFW)
10:10PM 32.7855 -96.9825 149° Southeast 255 293 4,600 2,100 Climbing FlightAware ADS-B (KAFW)
10:10PM 32.7765 -96.9574 113° Southeast 283 326 5,100 2,040 Climbing FlightAware ADS-B (KAFW)
10:10PM 32.7753 -96.9217 92° East 295 339 6,000 2,460 Climbing FlightAware ADS-B (KAFW)
10:11PM 32.7756 -96.8933 89° East 297 342 6,800 2,760 Climbing FlightAware ADS-B (KAFW)
10:11PM 32.7751 -96.8541 91° East 300 345 7,900 2,760 Climbing FlightAware ADS-B (KAFW)
10:11PM 32.7745 -96.8214 91° East 303 349 8,700 2,160 Climbing FlightAware ADS-B (KAFW)
10:12PM 32.7736 -96.7874 92° East 310 357 9,400 2,040 Climbing FlightAware ADS-B (KAFW)
10:12PM 32.7717 -96.7253 92° East 324 373 10,700 1,680 Climbing FlightAware ADS-B (KAFW)
10:13PM 32.7703 -96.6722 92° East 367 422 11,600 1,800 Climbing FlightAware ADS-B (KAFW)
10:15PM 32.7644 -96.4466 92° East 418 481 15,000 2,220 Climbing FlightAware ADS-B (KAFW)
10:16PM 32.7541 -96.2866 94° East 433 498 17,500 2,520 Climbing FlightAware ADS-B (KAFW)
10:16PM 32.7392 -96.1914 101° East 441 507 19,200 2,340 Climbing FlightAware ADS-B (KAFW)
10:17PM 32.7234 -96.0926 101° East 448 516 20,700 2,040 Climbing FlightAware ADS-B (KAFW)
10:18PM 32.7084 -95.9979 101° East 458 527 22,000 2,040 Climbing FlightAware ADS-B (KAFW)
10:18PM 32.6916 -95.8926 101° East 470 541 23,300 1,860 Climbing FlightAware ADS-B (KHOU)
10:18PM 32.6912 -95.8901 102° East 469 540 23,300 1,560 Level FlightAware ADS-B (KAFW)
10:19PM 32.6708 -95.7619 101° East 482 555 24,800 1,680 Climbing FlightAware ADS-B (KHOU)
10:20PM 32.6594 -95.6686 98° East 491 565 25,600 1,560 Climbing FlightAware ADS-B (KHOU)
10:20PM 32.6609 -95.5895 89° East 496 571 26,400 1,560 Climbing FlightAware ADS-B (KHOU)
10:22PM 32.6769 -95.3554 85° East 509 586 28,600 1,560 Climbing FlightAware ADS-B (KHOU)
10:22PM 32.6827 -95.2709 85° East 510 587 29,400 1,860 Climbing FlightAware ADS-B (KHOU)
10:23PM 32.6879 -95.1926 85° East 506 582 30,400 1,560 Climbing FlightAware ADS-B (KHOU)
10:23PM 32.6917 -95.1082 87° East 505 581 31,000 720 Climbing FlightAware ADS-B (KDTN)
10:24PM 32.6853 -95.0533 98° East 508 585 31,000  Level FlightAware ADS-B (KHOU)
10:24PM 32.6833 -95.0439 104° East 508 585 31,000  Level FlightAware ADS-B (KDTN)
10:24PM 32.6650 -94.9884 111° Southeast 509 586 31,000  Level FlightAware ADS-B (KDTN)
10:24PM 32.6655 -94.9897 297° West 510 587 31,000  Level FlightAware ADS-B (KHOU)
10:25PM 32.6221 -94.9053 121° Southeast 508 585 31,000  Level FlightAware ADS-B (KDTN)
10:25PM 32.6156 -94.8930 122° Southeast 509 586 31,000  Level FlightAware ADS-B (KHOU)
10:25PM 32.5773 -94.8208 122° Southeast 505 581 31,000  Level FlightAware ADS-B (KHOU)
10:25PM 32.5665 -94.8007 122° Southeast 504 580 31,000  Level FlightAware ADS-B (KDTN)
10:26PM 32.5407 -94.7524 122° Southeast 503 579 31,000  Level FlightAware ADS-B (KHOU)
10:26PM 32.5178 -94.7096 122° Southeast 500 575 31,000  Level FlightAware ADS-B (KDTN)
10:26PM 32.5026 -94.6812 122° Southeast 500 575 31,000  Level FlightAware ADS-B (KHOU)
10:27PM 32.4690 -94.6184 122° Southeast 499 574 31,000  Level FlightAware ADS-B (KDTN)
10:27PM 32.4654 -94.6118 123° Southeast 500 575 31,000  Level FlightAware ADS-B (KHOU)
10:27PM 32.4319 -94.5493 122° Southeast 501 577 31,000  Level FlightAware ADS-B (KHOU)
10:27PM 32.4183 -94.5238 122° Southeast 500 575 31,000  Level FlightAware ADS-B (KDTN)
10:28PM 32.3914 -94.4736 122° Southeast 502 578 31,000  Level FlightAware ADS-B (KHOU)
10:28PM 32.3724 -94.4384 122° Southeast 503 579 31,000  Level FlightAware ADS-B (KDTN)
10:28PM 32.3302 -94.3601 123° Southeast 499 574 31,000  Level FlightAware ADS-B (KDTN)
10:29PM 32.3162 -94.3341 122° Southeast 506 582 31,000  Level FlightAware ADS-B (KHOU)
10:29PM 32.2793 -94.2657 123° Southeast 507 583 31,000  Level FlightAware ADS-B (KHOU)
10:29PM 32.2680 -94.2447 123° Southeast 506 582 31,000  Level FlightAware ADS-B (KDTN)
10:30PM 32.2445 -94.2012 123° Southeast 508 585 31,000  Level FlightAware ADS-B (KHOU)
10:30PM 32.2180 -94.1522 123° Southeast 509 586 31,000  Level FlightAware ADS-B (KDTN)
10:30PM 32.2032 -94.1249 123° Southeast 509 586 31,000  Level FlightAware ADS-B (KHOU)
10:31PM 32.1675 -94.0592 123° Southeast 510 587 31,000  Level FlightAware ADS-B (KDTN)
10:31PM 32.1285 -93.9873 123° Southeast 509 586 31,000  Level FlightAware ADS-B (KHOU)
10:31PM 32.1242 -93.9794 123° Southeast 507 583 31,000  Level FlightAware ADS-B (KDTN)
10:32PM 32.0888 -93.9146 123° Southeast 507 583 31,000  Level FlightAware ADS-B (KHOU)
10:32PM 32.0672 -93.8750 123° Southeast 506 582 31,000  Level FlightAware ADS-B (KDTN)
10:32PM 32.0511 -93.8455 123° Southeast 507 583 31,000  Level FlightAware ADS-B (KHOU)
10:33PM 32.0221 -93.7927 123° Southeast 507 583 31,000  Level FlightAware ADS-B (KDTN)
10:33PM 32.0144 -93.7785 123° Southeast 508 585 31,000  Level FlightAware ADS-B (KHOU)
10:33PM 31.9757 -93.7078 123° Southeast 507 583 31,000  Level FlightAware ADS-B (KHOU)
10:33PM 31.9639 -93.6863 123° Southeast 506 582 31,000  Level FlightAware ADS-B (KDTN)
10:34PM 31.9412 -93.6449 123° Southeast 507 583 31,000  Level FlightAware ADS-B (KHOU)
10:34PM 31.9140 -93.5953 123° Southeast 508 585 31,000  Level FlightAware ADS-B (KDTN)
10:34PM 31.9285 -93.6218 303° West 508 585 31,000  Level FlightAware ADS-B (KHOU)
10:35PM 31.8413 -93.4635 123° Southeast 513 590 31,000  Level FlightAware ADS-B (KDTN)
10:35PM 31.7937 -93.3773 123° Southeast 515 593 31,000  Level FlightAware ADS-B (KDTN)
10:36PM 31.7566 -93.3103 123° Southeast 516 594 31,000  Level FlightAware ADS-B (KHOU)
10:36PM 31.7206 -93.2453 123° Southeast 516 594 31,000  Level FlightAware ADS-B (KHOU)
10:37PM 31.6793 -93.1703 123° Southeast 515 593 31,000  Level FlightAware ADS-B (KHOU)
10:37PM 31.6610 -93.1318 119° Southeast 516 594 31,000  Level FlightAware ADS-B (KHOU)
10:38PM 31.6040 -93.0029 117° Southeast 516 594 31,000  Level FlightAware ADS-B (KHOU)
10:39PM 31.5710 -92.9301 118° Southeast 515 593 31,000  Level FlightAware ADS-B (KHOU)
10:40PM 31.5089 -92.7882 117° Southeast 515 593 31,000  Level FlightAware ADS-B (KHOU)
10:40PM 31.4788 -92.7186 117° Southeast 513 590 31,000  Level FlightAware ADS-B (KHOU)
10:41PM 31.4560 -92.6662 117° Southeast 513 590 31,000  Level FlightAware ADS-B (KHOU)
10:42PM 31.3787 -92.4907 117° Southeast 512 589 31,000  Level FlightAware ADS-B (KHOU)
10:42PM 31.3502 -92.4263 117° Southeast 512 589 31,000  Level FlightAware ADS-B (KHOU)
10:42PM 31.3264 -92.3727 117° Southeast 509 586 31,000  Level FlightAware ADS-B
10:43PM 31.2821 -92.2723 117° Southeast 512 589 31,000  Level FlightAware ADS-B (KHOU)
10:44PM 31.2160 -92.1236 117° Southeast 515 593 31,000  Level FlightAware ADS-B (KHOU)
10:45PM 31.1842 -92.0521 117° Southeast 517 595 31,000  Level FlightAware ADS-B (KHOU)
10:45PM 31.1588 -91.9948 117° Southeast 516 594 31,000  Level FlightAware ADS-B
10:45PM 31.1549 -91.9862 117° Southeast 517 595 31,000  Level FlightAware ADS-B (KHOU)
10:45PM 31.1257 -91.9206 118° Southeast 519 597 31,000  Level FlightAware ADS-B (KHOU)
10:46PM 31.0997 -91.8664 118° Southeast 517 595 31,000  Level Fort Worth Center
10:47PM 31.0478 -91.7481 117° Southeast 514 592 31,000  Level Houston Center
10:48PM 30.9794 -91.5989 118° Southeast 517 595 31,000  Level Houston Center
10:49PM 30.9122 -91.4497 118° Southeast 518 596 31,000  Level Houston Center
10:50PM 30.8317 -91.2708 118° Southeast 519 597 31,000  Level Houston Center
10:51PM 30.7642 -91.1217 118° Southeast 522 601 31,000  Level Houston Center
10:52PM 30.6983 -90.9722 117° Southeast 522 601 31,000 -60 Level Houston Center
10:53PM 30.6297 -90.8219 118° Southeast 522 601 30,900  Descending Houston Center
10:54PM 30.5608 -90.6736 118° Southeast 523 602 31,000  Climbing Houston Center
10:55PM 30.4919 -90.5225 118° Southeast 527 606 30,900  Descending Houston Center
10:56PM 30.4214 -90.3711 118° Southeast 532 612 31,000  Climbing Houston Center
10:57PM 30.3494 -90.2206 119° Southeast 533 613 30,900  Descending Houston Center
10:58PM 30.2806 -90.0464 115° Southeast 546 628 31,000  Climbing Houston Center
10:59PM 30.2147 -89.8697 113° Southeast 551 634 30,900  Descending Houston Center
11:00PM 30.1561 -89.7100 113° Southeast 554 638 31,000  Climbing Houston Center
11:01PM 30.0997 -89.5475 112° Southeast 554 638 31,000  Level Houston Center
11:02PM 30.0414 -89.3856 113° Southeast 553 636 31,000 -60 Level Houston Center
11:03PM 29.9817 -89.2222 113° Southeast 553 636 30,900  Descending Houston Center
11:04PM 29.9233 -89.0597 112° Southeast 553 636 31,000  Climbing Houston Center
11:05PM 29.8639 -88.8983 113° Southeast 553 636 30,900 -60 Descending Houston Center
11:06PM 29.8047 -88.7381 113° Southeast 548 631 30,900  Level Houston Center
11:07PM 29.7456 -88.5761 113° Southeast 548 631 31,000  Climbing Houston Center
11:08PM 29.6853 -88.4147 113° Southeast 548 631 30,900  Descending Houston Center
11:09PM 29.6181 -88.2311 113° Southeast 549 632 31,000  Climbing Houston Center
11:10PM 29.5567 -88.0683 113° Southeast 551 634 31,000  Level Houston Center
11:11PM 29.4964 -87.9067 113° Southeast 552 635 31,000  Level Houston Center
11:12PM 29.4361 -87.7464 113° Southeast 552 635 31,000  Level Houston Center
11:13PM 29.3711 -87.5725 113° Southeast 552 635 31,000  Level Houston Center
11:14PM 29.3058 -87.3994 113° Southeast 551 634 31,000 -60 Level Houston Center
11:15PM 29.2500 -87.2533 114° Southeast 551 634 30,900  Descending Houston Center
11:16PM 29.1828 -87.0997 117° Southeast 532 612 31,000  Climbing Jacksonville Center
11:17PM 29.1144 -86.9519 118° Southeast 538 619 30,900  Descending Jacksonville Center
11:18PM 29.0442 -86.8017 118° Southeast 538 619 31,000  Climbing Jacksonville Center
11:19PM 28.9775 -86.6542 117° Southeast 533 613 30,900 -60 Descending Jacksonville Center
11:20PM 28.9089 -86.5047 118° Southeast 533 613 30,900  Level Jacksonville Center
11:21PM 28.8397 -86.3575 118° Southeast 533 613 31,000 660 Climbing Jacksonville Center
11:22PM 28.7706 -86.2108 118° Southeast 533 613 32,300 960 Climbing Jacksonville Center
11:23PM 28.7033 -86.0689 118° Southeast 526 605 33,000 300 Climbing Jacksonville Center
11:24PM 28.6317 -85.9200 119° Southeast 526 605 32,900 -60 Descending Jacksonville Center
11:26PM 28.5025 -85.6439 118° Southeast 548 631 32,900  Level Miami Center
11:27PM 28.4342 -85.4994 118° Southeast 542 624 32,900  Level Miami Center
11:28PM 28.3617 -85.3525 119° Southeast 542 624 33,000  Climbing Miami Center
11:29PM 28.2931 -85.2086 118° Southeast 530 610 33,000  Level Miami Center
11:30PM 28.2225 -85.0622 119° Southeast 530 610 33,000 -60 Level Miami Center
11:31PM 28.1533 -84.9183 119° Southeast 530 610 32,900  Descending Miami Center
11:32PM 28.0806 -84.7700 119° Southeast 530 610 33,000  Climbing Miami Center
11:33PM 28.0092 -84.6264 119° Southeast 530 610 32,900  Descending Miami Center
11:34PM 27.9378 -84.4783 119° Southeast 530 610 33,000  Climbing Miami Center
11:35PM 27.8686 -84.3258 117° Southeast 535 616 32,900  Descending Miami Center
11:36PM 27.8036 -84.1717 115° Southeast 535 616 33,000  Climbing Miami Center
11:42PM 27.4166 -83.2863 115° Southeast 539 620 33,000  Level FlightAware ADS-B (KMCO)
11:42PM 27.3760 -83.1952 117° Southeast 537 618 33,000  Level FlightAware ADS-B (KMCO)
11:46PM 27.1230 -82.6312 117° Southeast 535 616 33,000  Level FlightAware ADS-B (KMCO)
11:47PM 27.0535 -82.4769 117° Southeast 535 616 33,000  Level FlightAware ADS-B (KMCO)
11:48PM 27.0085 -82.3771 117° Southeast 531 611 33,000  Level FlightAware ADS-B (KMCO)
11:49PM 26.9626 -82.2758 117° Southeast 528 608 33,000  Level FlightAware ADS-B (KMCO)
11:49PM 26.9178 -82.1772 117° Southeast 527 606 33,000  Level FlightAware ADS-B (KMCO)
11:50PM 26.8712 -82.0747 117° Southeast 527 606 33,000  Level FlightAware ADS-B (KMCO)
11:51PM 26.8271 -81.9779 117° Southeast 526 605 33,000  Level FlightAware ADS-B (KMCO)
11:51PM 26.7826 -81.8806 117° Southeast 528 608 33,000  Level FlightAware ADS-B (KMCO)
11:52PM 26.7394 -81.7863 117° Southeast 529 609 33,000  Level FlightAware ADS-B (KMCO)
11:53PM 26.6966 -81.6929 117° Southeast 528 608 33,000  Level FlightAware ADS-B (KMCO)
11:54PM 26.6254 -81.5383 117° Southeast 527 606 33,000  Level FlightAware ADS-B (KMCO)
11:54PM 26.5810 -81.4421 117° Southeast 527 606 33,000  Level FlightAware ADS-B (KMCO)
11:55PM 26.5356 -81.3438 117° Southeast 527 606 33,000  Level FlightAware ADS-B (KMCO)
11:56PM 26.4894 -81.2443 117° Southeast 530 610 33,000  Level FlightAware ADS-B (KMCO)
11:56PM 26.4454 -81.1495 117° Southeast 529 609 33,000  Level FlightAware ADS-B (KMCO)
11:57PM 26.4067 -81.0665 117° Southeast 527 606 33,000  Level FlightAware ADS-B (KMCO)
11:58PM 26.3595 -80.9653 118° Southeast 526 605 33,000  Level FlightAware ADS-B (KMCO)
11:59PM 26.2642 -80.7672 118° Southeast 528 608 33,000  Level Miami Center
12:00AM 26.2069 -80.6333 115° Southeast 528 608 33,000 -60 Level Miami Center
12:01AM 26.1397 -80.4903 118° Southeast 528 608 32,900  Descending Miami Center
12:02AM 26.0703 -80.3425 118° Southeast 523 602 33,000  Climbing Miami Center
12:03AM 25.9944 -80.1831 118° Southeast 523 602 32,900  Descending Miami Center
12:04AM 25.9225 -80.0378 119° Southeast 528 608 33,000  Climbing Miami Center
12:05AM 25.8483 -79.8972 120° Southeast 528 608 33,000 -60 Level Miami Center
12:06AM 25.7589 -79.7728 129° Southeast 528 608 32,900 -60 Descending Miami Center
12:07AM 25.6672 -79.6508 130° Southeast 521 600 32,900  Level Miami Center
12:08AM 25.5775 -79.5311 130° Southeast 510 587 33,000  Climbing Miami Center
12:09AM 25.4858 -79.4050 129° Southeast 510 587 33,000  Level Miami Center
12:10AM 25.3917 -79.2811 130° Southeast 510 587 33,000 -60 Level Miami Center
12:11AM 25.3017 -79.1575 129° Southeast 510 587 32,900 -60 Descending Miami Center
12:13AM 25.1618 -78.9847 132° Southeast  Level FlightAware Approximate
12:20AM 24.5357 -78.1703 129° Southeast  Level FlightAware Approximate
12:21AM 24.4479 -78.0529 129° Southeast  Level FlightAware Approximate
12:22AM 24.3599 -77.9357 130° Southeast  Level FlightAware Approximate
12:23AM 24.2716 -77.8189 130° Southeast  Level FlightAware Approximate
12:24AM 24.1832 -77.7023 130° Southeast  Level FlightAware Approximate
12:25AM 24.0947 -77.5858 130° Southeast  Level FlightAware Approximate
12:26AM 24.0061 -77.4695 130° Southeast  Level FlightAware Approximate
12:27AM 23.9174 -77.3534 130° Southeast  Level FlightAware Approximate
12:28AM 23.8287 -77.2374 130° Southeast  Level FlightAware Approximate
12:29AM 23.7395 -77.1219 130° Southeast  Level FlightAware Approximate
12:30AM 23.6502 -77.0066 130° Southeast  Level FlightAware Approximate
12:31AM 23.5607 -76.8915 130° Southeast  Level FlightAware Approximate
12:32AM 23.4712 -76.7765 130° Southeast  Level FlightAware Approximate
12:33AM 23.3816 -76.6617 130° Southeast  Level FlightAware Approximate
12:34AM 23.2919 -76.5471 130° Southeast  Level FlightAware Approximate
12:35AM 23.2021 -76.4326 130° Southeast  Level FlightAware Approximate
12:36AM 23.1123 -76.3182 130° Southeast  Level FlightAware Approximate
12:37AM 23.0223 -76.2040 131° Southeast  Level FlightAware Approximate
12:38AM 22.9323 -76.0900 131° Southeast  Level FlightAware Approximate
12:39AM 22.8422 -75.9761 131° Southeast  Level FlightAware Approximate
12:40AM 22.7520 -75.8624 131° Southeast  Level FlightAware Approximate
12:41AM 22.6618 -75.7488 131° Southeast  Level FlightAware Approximate
12:42AM 22.5714 -75.6354 131° Southeast  Level FlightAware Approximate
12:43AM 22.4810 -75.5221 131° Southeast  Level FlightAware Approximate
12:44AM 22.3891 -75.4103 132° Southeast  Level FlightAware Approximate
12:45AM 22.2982 -75.2976 131° Southeast  Level FlightAware Approximate
12:46AM 22.2078 -75.1845 131° Southeast  Level FlightAware Approximate
12:47AM 22.1173 -75.0716 131° Southeast  Level FlightAware Approximate
12:48AM 22.0160 -74.9703 139° Southeast  Level FlightAware Approximate
12:49AM 21.9121 -74.8719 139° Southeast  Level FlightAware Approximate
12:50AM 21.8082 -74.7736 139° Southeast  Level FlightAware Approximate
12:51AM 21.7041 -74.6755 139° Southeast  Level FlightAware Approximate
12:52AM 21.6001 -74.5775 139° Southeast  Level FlightAware Approximate
12:53AM 21.4959 -74.4797 139° Southeast  Level FlightAware Approximate
12:54AM 21.3917 -74.3820 139° Southeast  Level FlightAware Approximate
12:55AM 21.2875 -74.2844 139° Southeast  Level FlightAware Approximate
12:56AM 21.1832 -74.1870 139° Southeast  Level FlightAware Approximate
12:57AM 21.0788 -74.0897 139° Southeast  Level FlightAware Approximate
12:58AM 20.9744 -73.9926 139° Southeast  Level FlightAware Approximate
12:59AM 20.8699 -73.8955 139° Southeast  Level FlightAware Approximate
01:00AM 20.7654 -73.7987 139° Southeast  Level FlightAware Approximate
01:01AM 20.6608 -73.7019 139° Southeast  Level FlightAware Approximate
01:02AM 20.5562 -73.6053 139° Southeast  Level FlightAware Approximate
01:03AM 20.4515 -73.5088 139° Southeast  Level FlightAware Approximate
01:04AM 20.3468 -73.4125 139° Southeast  Level FlightAware Approximate
01:05AM 20.2420 -73.3162 139° Southeast  Level FlightAware Approximate
01:06AM 20.1371 -73.2201 139° Southeast  Level FlightAware Approximate
01:07AM 20.0244 -73.1349 145° Southeast  Level FlightAware Approximate
01:08AM 19.9086 -73.0545 147° Southeast  Level FlightAware Approximate
01:09AM 19.7920 -72.9754 147° Southeast  Level FlightAware Approximate
01:10AM 19.6754 -72.8964 147° Southeast  Level FlightAware Approximate
01:11AM 19.5587 -72.8176 147° Southeast  Level FlightAware Approximate
01:12AM 19.4416 -72.7396 149° Southeast  Level FlightAware Approximate
01:13AM 19.3235 -72.6633 149° Southeast  Level FlightAware Approximate
01:14AM 19.2054 -72.5870 149° Southeast  Level FlightAware Approximate
01:15AM 19.0873 -72.5109 149° Southeast  Level FlightAware Approximate
01:16AM 18.9691 -72.4349 149° Southeast  Level FlightAware Approximate
01:17AM 18.8518 -72.3575 148° Southeast  Level FlightAware Approximate
01:18AM 18.7344 -72.2802 148° Southeast  Level FlightAware Approximate
01:19AM 18.6171 -72.2030 148° Southeast  Level FlightAware Approximate
01:20AM 18.4996 -72.1259 148° Southeast  Level FlightAware Approximate
01:21AM 18.3847 -72.0506 148° Southeast  Level FlightAware Approximate
01:22AM 18.2697 -71.9753 148° Southeast  Level FlightAware Approximate
01:23AM 18.1547 -71.9001 148° Southeast  Level FlightAware Approximate
01:24AM 18.0396 -71.8251 148° Southeast  Level FlightAware Approximate
01:25AM 17.9245 -71.7501 148° Southeast  Level FlightAware Approximate
01:26AM 17.8093 -71.6754 148° Southeast  Level FlightAware Approximate
01:27AM 17.6941 -71.6008 148° Southeast  Level FlightAware Approximate
01:28AM 17.5788 -71.5263 148° Southeast  Level FlightAware Approximate
01:29AM 17.4636 -71.4519 148° Southeast  Level FlightAware Approximate
01:30AM 17.3482 -71.3776 148° Southeast  Level FlightAware Approximate
01:31AM 17.2329 -71.3034 148° Southeast  Level FlightAware Approximate
01:32AM 17.1175 -71.2292 148° Southeast  Level FlightAware Approximate
01:33AM 17.0021 -71.1552 148° Southeast  Level FlightAware Approximate
01:34AM 16.8867 -71.0813 148° Southeast  Level FlightAware Approximate
01:35AM 16.7712 -71.0074 149° Southeast  Level FlightAware Approximate
01:36AM 16.6558 -70.9336 149° Southeast  Level FlightAware Approximate
01:37AM 16.5403 -70.8599 149° Southeast  Level FlightAware Approximate
01:38AM 16.4247 -70.7863 149° Southeast  Level FlightAware Approximate
01:39AM 16.3092 -70.7128 149° Southeast  Level FlightAware Approximate
01:40AM 16.1936 -70.6394 149° Southeast  Level FlightAware Approximate
01:41AM 16.0780 -70.5661 149° Southeast  Level FlightAware Approximate
01:42AM 15.9624 -70.4928 149° Southeast  Level FlightAware Approximate
01:43AM 15.8469 -70.4198 149° Southeast  Level FlightAware Approximate
01:44AM 15.7315 -70.3468 149° Southeast  Level FlightAware Approximate
01:45AM 15.6160 -70.2740 149° Southeast  Level FlightAware Approximate
01:46AM 15.5005 -70.2012 149° Southeast  Level FlightAware Approximate
01:47AM 15.3849 -70.1285 149° Southeast  Level FlightAware Approximate
01:48AM 15.2694 -70.0558 149° Southeast  Level FlightAware Approximate
01:49AM 15.1538 -69.9833 149° Southeast  Level FlightAware Approximate
01:50AM 15.0381 -69.9108 149° Southeast  Level FlightAware Approximate
01:51AM 14.9225 -69.8384 149° Southeast  Level FlightAware Approximate
01:52AM 14.8069 -69.7661 149° Southeast  Level FlightAware Approximate
01:53AM 14.6912 -69.6939 149° Southeast  Level FlightAware Approximate
01:54AM 14.5755 -69.6217 149° Southeast  Level FlightAware Approximate
01:55AM 14.4598 -69.5496 149° Southeast  Level FlightAware Approximate
01:56AM 14.3440 -69.4776 149° Southeast  Level FlightAware Approximate
01:57AM 14.2282 -69.4057 149° Southeast  Level FlightAware Approximate
01:58AM 14.1124 -69.3338 149° Southeast  Level FlightAware Approximate
01:59AM 13.9966 -69.2620 149° Southeast  Level FlightAware Approximate
02:00AM 13.8808 -69.1903 149° Southeast  Level FlightAware Approximate
02:01AM 13.7650 -69.1187 149° Southeast  Level FlightAware Approximate
02:02AM 13.6491 -69.0471 149° Southeast  Level FlightAware Approximate
02:03AM 13.5332 -68.9756 149° Southeast  Level FlightAware Approximate
02:04AM 13.4173 -68.9042 149° Southeast  Level FlightAware Approximate
02:05AM 13.3014 -68.8328 149° Southeast  Level FlightAware Approximate
02:06AM 13.1854 -68.7615 149° Southeast  Level FlightAware Approximate
02:07AM 13.0695 -68.6902 149° Southeast  Level FlightAware Approximate
02:08AM 12.9536 -68.6189 149° Southeast  Level FlightAware Approximate
02:09AM 12.8378 -68.5478 149° Southeast  Level FlightAware Approximate
02:10AM 12.7220 -68.4768 149° Southeast  Level FlightAware Approximate
02:11AM 12.6063 -68.4058 149° Southeast  Level FlightAware Approximate
02:12AM 12.4905 -68.3349 149° Southeast  Level FlightAware Approximate
02:13AM 12.3747 -68.2641 149° Southeast  Level FlightAware Approximate
02:14AM 12.2588 -68.1933 149° Southeast  Level FlightAware Approximate
02:15AM 12.1430 -68.1226 149° Southeast  Level FlightAware Approximate
02:16AM 12.0269 -68.0519 149° Southeast  Level FlightAware Approximate
02:17AM 11.9108 -67.9812 149° Southeast  Level FlightAware Approximate
02:18AM 11.7947 -67.9105 149° Southeast  Level FlightAware Approximate
02:19AM 11.6786 -67.8399 149° Southeast  Level FlightAware Approximate
02:20AM 11.5627 -67.7695 149° Southeast  Level FlightAware Approximate
02:21AM 11.4467 -67.6992 149° Southeast  Level FlightAware Approximate
02:22AM 11.3308 -67.6289 149° Southeast  Level FlightAware Approximate
02:23AM 11.2148 -67.5586 149° Southeast  Level FlightAware Approximate
02:24AM 11.0988 -67.4884 149° Southeast  Level FlightAware Approximate
02:25AM 10.9828 -67.4183 149° Southeast  Level FlightAware Approximate
02:26AM 10.8667 -67.3482 149° Southeast  Level FlightAware Approximate
02:27AM 10.7507 -67.2782 149° Southeast  Level FlightAware Approximate
02:28AM 10.6346 -67.2083 149° Southeast  Level FlightAware Approximate
02:29AM 10.5185 -67.1383 149° Southeast  Level FlightAware Approximate
02:30AM 10.4024 -67.0685 149° Southeast  Level FlightAware Approximate
02:31AM 10.2863 -66.9987 149° Southeast  Level FlightAware Approximate
02:32AM 10.1702 -66.9289 149° Southeast  Level FlightAware Approximate
02:33AM 10.0541 -66.8592 149° Southeast  Level FlightAware Approximate
02:34AM 9.9379 -66.7895 149° Southeast  Level FlightAware Approximate
02:35AM 9.8218 -66.7199 149° Southeast  Level FlightAware Approximate
02:36AM 9.7056 -66.6504 149° Southeast  Level FlightAware Approximate
02:37AM 9.5894 -66.5809 149° Southeast  Level FlightAware Approximate
02:38AM 9.4732 -66.5114 149° Southeast  Level FlightAware Approximate
02:39AM 9.3570 -66.4420 149° Southeast  Level FlightAware Approximate
02:40AM 9.2407 -66.3726 149° Southeast  Level FlightAware Approximate
02:41AM 9.1245 -66.3033 150° Southeast  Level FlightAware Approximate
02:42AM 9.0082 -66.2340 150° Southeast  Level FlightAware Approximate
02:43AM 8.8919 -66.1648 150° Southeast  Level FlightAware Approximate
02:44AM 8.7757 -66.0956 150° Southeast  Level FlightAware Approximate
02:45AM 8.6594 -66.0265 150° Southeast  Level FlightAware Approximate
02:46AM 8.5430 -65.9574 150° Southeast  Level FlightAware Approximate
02:47AM 8.4267 -65.8883 150° Southeast  Level FlightAware Approximate
02:48AM 8.3104 -65.8193 150° Southeast  Level FlightAware Approximate
02:49AM 8.1940 -65.7503 150° Southeast  Level FlightAware Approximate
02:50AM 8.0777 -65.6814 150° Southeast  Level FlightAware Approximate
02:51AM 7.9613 -65.6124 150° Southeast  Level FlightAware Approximate
02:52AM 7.8449 -65.5436 150° Southeast  Level FlightAware Approximate
02:53AM 7.7285 -65.4748 150° Southeast  Level FlightAware Approximate
02:54AM 7.6121 -65.4060 150° Southeast  Level FlightAware Approximate
02:55AM 7.4957 -65.3372 150° Southeast  Level FlightAware Approximate
02:56AM 7.3793 -65.2685 150° Southeast  Level FlightAware Approximate
02:57AM 7.2628 -65.1999 150° Southeast  Level FlightAware Approximate
02:58AM 7.1464 -65.1312 150° Southeast  Level FlightAware Approximate
02:59AM 7.0299 -65.0626 150° Southeast  Level FlightAware Approximate
03:00AM 6.9135 -64.9941 150° Southeast  Level FlightAware Approximate
03:01AM 6.7970 -64.9255 150° Southeast  Level FlightAware Approximate
03:02AM 6.6805 -64.8570 150° Southeast  Level FlightAware Approximate
03:03AM 6.5640 -64.7886 150° Southeast  Level FlightAware Approximate
03:04AM 6.4475 -64.7201 150° Southeast  Level FlightAware Approximate
03:05AM 6.3310 -64.6517 150° Southeast  Level FlightAware Approximate
03:06AM 6.2145 -64.5834 150° Southeast  Level FlightAware Approximate
03:07AM 6.0979 -64.5150 150° Southeast  Level FlightAware Approximate
03:08AM 5.9814 -64.4467 150° Southeast  Level FlightAware Approximate
03:09AM 5.8648 -64.3784 150° Southeast  Level FlightAware Approximate
03:10AM 5.7483 -64.3102 150° Southeast  Level FlightAware Approximate
03:11AM 5.6317 -64.2419 150° Southeast  Level FlightAware Approximate
03:12AM 5.5151 -64.1737 150° Southeast  Level FlightAware Approximate
03:13AM 5.3986 -64.1056 150° Southeast  Level FlightAware Approximate
03:14AM 5.2820 -64.0374 150° Southeast  Level FlightAware Approximate
03:15AM 5.1654 -63.9693 150° Southeast  Level FlightAware Approximate
03:16AM 5.0488 -63.9012 150° Southeast  Level FlightAware Approximate
03:17AM 4.9322 -63.8331 150° Southeast  Level FlightAware Approximate
03:18AM 4.8155 -63.7651 150° Southeast  Level FlightAware Approximate
03:19AM 4.6989 -63.6970 150° Southeast  Level FlightAware Approximate
03:20AM 4.5823 -63.6291 150° Southeast  Level FlightAware Approximate
03:21AM 4.4657 -63.5611 150° Southeast  Level FlightAware Approximate
03:22AM 4.3490 -63.4931 150° Southeast  Level FlightAware Approximate
03:23AM 4.2324 -63.4252 150° Southeast  Level FlightAware Approximate
03:24AM 4.1157 -63.3573 150° Southeast  Level FlightAware Approximate
03:25AM 3.9990 -63.2893 150° Southeast  Level FlightAware Approximate
03:26AM 3.8824 -63.2215 150° Southeast  Level FlightAware Approximate
03:27AM 3.7657 -63.1536 150° Southeast  Level FlightAware Approximate
03:28AM 3.6490 -63.0858 150° Southeast  Level FlightAware Approximate
03:29AM 3.5323 -63.0179 150° Southeast  Level FlightAware Approximate
03:30AM 3.4156 -62.9501 150° Southeast  Level FlightAware Approximate
03:31AM 3.2990 -62.8824 150° Southeast  Level FlightAware Approximate
03:32AM 3.1823 -62.8146 150° Southeast  Level FlightAware Approximate
03:33AM 3.0656 -62.7468 150° Southeast  Level FlightAware Approximate
03:34AM 2.9488 -62.6791 150° Southeast  Level FlightAware Approximate
03:35AM 2.8321 -62.6114 150° Southeast  Level FlightAware Approximate
03:36AM 2.7154 -62.5436 150° Southeast  Level FlightAware Approximate
03:37AM 2.5987 -62.4759 150° Southeast  Level FlightAware Approximate
03:38AM 2.4820 -62.4082 150° Southeast  Level FlightAware Approximate
03:39AM 2.3653 -62.3406 150° Southeast  Level FlightAware Approximate
03:40AM 2.2485 -62.2729 150° Southeast  Level FlightAware Approximate
03:41AM 2.1318 -62.2052 150° Southeast  Level FlightAware Approximate
03:42AM 2.0151 -62.1376 150° Southeast  Level FlightAware Approximate
03:43AM 1.8983 -62.0699 150° Southeast  Level FlightAware Approximate
03:44AM 1.7816 -62.0023 150° Southeast  Level FlightAware Approximate
03:45AM 1.6648 -61.9347 150° Southeast  Level FlightAware Approximate
03:46AM 1.5481 -61.8671 150° Southeast  Level FlightAware Approximate
03:47AM 1.4314 -61.7995 150° Southeast  Level FlightAware Approximate
03:48AM 1.3146 -61.7319 150° Southeast  Level FlightAware Approximate
03:49AM 1.1979 -61.6643 150° Southeast  Level FlightAware Approximate
03:50AM 1.0811 -61.5967 150° Southeast  Level FlightAware Approximate
03:51AM 0.9644 -61.5291 150° Southeast  Level FlightAware Approximate
03:52AM 0.8476 -61.4616 150° Southeast  Level FlightAware Approximate
03:53AM 0.7308 -61.3940 150° Southeast  Level FlightAware Approximate
03:54AM 0.6141 -61.3264 150° Southeast  Level FlightAware Approximate
03:55AM 0.4973 -61.2589 150° Southeast  Level FlightAware Approximate
03:56AM 0.3806 -61.1913 150° Southeast  Level FlightAware Approximate
03:57AM 0.2638 -61.1237 150° Southeast  Level FlightAware Approximate
03:58AM 0.1470 -61.0562 150° Southeast  Level FlightAware Approximate
03:59AM 0.0303 -60.9886 150° Southeast  Level FlightAware Approximate
04:00AM -0.0865 -60.9211 150° Southeast  Level FlightAware Approximate
04:01AM -0.2032 -60.8535 150° Southeast  Level FlightAware Approximate
04:02AM -0.3200 -60.7859 150° Southeast  Level FlightAware Approximate
04:03AM -0.4368 -60.7184 150° Southeast  Level FlightAware Approximate
04:04AM -0.5535 -60.6508 150° Southeast  Level FlightAware Approximate
04:05AM -0.6703 -60.5833 150° Southeast  Level FlightAware Approximate
04:06AM -0.7870 -60.5157 150° Southeast  Level FlightAware Approximate
04:07AM -0.9038 -60.4481 150° Southeast  Level FlightAware Approximate
04:08AM -1.0206 -60.3805 150° Southeast  Level FlightAware Approximate
04:09AM -1.1373 -60.3130 150° Southeast  Level FlightAware Approximate
04:10AM -1.2541 -60.2454 150° Southeast  Level FlightAware Approximate
04:11AM -1.3708 -60.1778 150° Southeast  Level FlightAware Approximate
04:12AM -1.4876 -60.1102 150° Southeast  Level FlightAware Approximate
04:13AM -1.6043 -60.0426 150° Southeast  Level FlightAware Approximate
04:14AM -1.7210 -59.9750 150° Southeast  Level FlightAware Approximate
04:15AM -1.8378 -59.9073 150° Southeast  Level FlightAware Approximate
04:16AM -1.9545 -59.8397 150° Southeast  Level FlightAware Approximate
04:17AM -2.0713 -59.7721 150° Southeast  Level FlightAware Approximate
04:18AM -2.1880 -59.7044 150° Southeast  Level FlightAware Approximate
04:19AM -2.3047 -59.6368 150° Southeast  Level FlightAware Approximate
04:20AM -2.4214 -59.5691 150° Southeast  Level FlightAware Approximate
04:21AM -2.5382 -59.5014 150° Southeast  Level FlightAware Approximate
04:22AM -2.6549 -59.4337 150° Southeast  Level FlightAware Approximate
04:23AM -2.7716 -59.3660 150° Southeast  Level FlightAware Approximate
04:24AM -2.8883 -59.2983 150° Southeast  Level FlightAware Approximate
04:25AM -3.0050 -59.2305 150° Southeast  Level FlightAware Approximate
04:26AM -3.1217 -59.1628 150° Southeast  Level FlightAware Approximate
04:27AM -3.2384 -59.0950 150° Southeast  Level FlightAware Approximate
04:28AM -3.3551 -59.0272 150° Southeast  Level FlightAware Approximate
04:29AM -3.4718 -58.9594 150° Southeast  Level FlightAware Approximate
04:30AM -3.5885 -58.8916 150° Southeast  Level FlightAware Approximate
04:31AM -3.7052 -58.8238 150° Southeast  Level FlightAware Approximate
04:32AM -3.8219 -58.7560 150° Southeast  Level FlightAware Approximate
04:33AM -3.9385 -58.6881 150° Southeast  Level FlightAware Approximate
04:34AM -4.0552 -58.6202 150° Southeast  Level FlightAware Approximate
04:35AM -4.1719 -58.5523 150° Southeast  Level FlightAware Approximate
04:36AM -4.2885 -58.4843 150° Southeast  Level FlightAware Approximate
04:37AM -4.4052 -58.4164 150° Southeast  Level FlightAware Approximate
04:38AM -4.5218 -58.3484 150° Southeast  Level FlightAware Approximate
04:39AM -4.6384 -58.2804 150° Southeast  Level FlightAware Approximate
04:40AM -4.7551 -58.2124 150° Southeast  Level FlightAware Approximate
04:41AM -4.8717 -58.1444 150° Southeast  Level FlightAware Approximate
04:42AM -4.9883 -58.0763 150° Southeast  Level FlightAware Approximate
04:43AM -5.1049 -58.0083 150° Southeast  Level FlightAware Approximate
04:44AM -5.2215 -57.9401 150° Southeast  Level FlightAware Approximate
04:45AM -5.3381 -57.8720 150° Southeast  Level FlightAware Approximate
04:46AM -5.4547 -57.8038 150° Southeast  Level FlightAware Approximate
04:47AM -5.5713 -57.7357 150° Southeast  Level FlightAware Approximate
04:48AM -5.6878 -57.6674 150° Southeast  Level FlightAware Approximate
04:49AM -5.8044 -57.5992 150° Southeast  Level FlightAware Approximate
04:50AM -5.9209 -57.5309 150° Southeast  Level FlightAware Approximate
04:51AM -6.0375 -57.4626 150° Southeast  Level FlightAware Approximate
04:52AM -6.1540 -57.3943 150° Southeast  Level FlightAware Approximate
04:53AM -6.2706 -57.3260 150° Southeast  Level FlightAware Approximate
04:54AM -6.3871 -57.2576 150° Southeast  Level FlightAware Approximate
04:55AM -6.5036 -57.1891 150° Southeast  Level FlightAware Approximate
04:56AM -6.6201 -57.1207 150° Southeast  Level FlightAware Approximate
04:57AM -6.7366 -57.0522 150° Southeast  Level FlightAware Approximate
04:58AM -6.8531 -56.9837 150° Southeast  Level FlightAware Approximate
04:59AM -6.9695 -56.9151 150° Southeast  Level FlightAware Approximate
05:00AM -7.0860 -56.8466 150° Southeast  Level FlightAware Approximate
05:01AM -7.2024 -56.7779 150° Southeast  Level FlightAware Approximate
05:02AM -7.3189 -56.7093 150° Southeast  Level FlightAware Approximate
05:03AM -7.4353 -56.6406 150° Southeast  Level FlightAware Approximate
05:04AM -7.5517 -56.5719 150° Southeast  Level FlightAware Approximate
05:05AM -7.6681 -56.5031 150° Southeast  Level FlightAware Approximate
05:06AM -7.7845 -56.4343 150° Southeast  Level FlightAware Approximate
05:07AM -7.9009 -56.3655 150° Southeast  Level FlightAware Approximate
05:08AM -8.0173 -56.2966 150° Southeast  Level FlightAware Approximate
05:09AM -8.1337 -56.2277 150° Southeast  Level FlightAware Approximate
05:10AM -8.2500 -56.1587 150° Southeast  Level FlightAware Approximate
05:11AM -8.3670 -56.0893 150° Southeast  Level FlightAware Approximate
05:12AM -8.4839 -56.0199 150° Southeast  Level FlightAware Approximate
05:13AM -8.6009 -55.9505 150° Southeast  Level FlightAware Approximate
05:14AM -8.7178 -55.8810 150° Southeast  Level FlightAware Approximate
05:15AM -8.8347 -55.8115 150° Southeast  Level FlightAware Approximate
05:16AM -8.9516 -55.7419 150° Southeast  Level FlightAware Approximate
05:17AM -9.0685 -55.6722 150° Southeast  Level FlightAware Approximate
05:18AM -9.1854 -55.6026 150° Southeast  Level FlightAware Approximate
05:19AM -9.3023 -55.5328 150° Southeast  Level FlightAware Approximate
05:20AM -9.4191 -55.4631 150° Southeast  Level FlightAware Approximate
05:21AM -9.5360 -55.3933 149° Southeast  Level FlightAware Approximate
05:22AM -9.6528 -55.3234 149° Southeast  Level FlightAware Approximate
05:23AM -9.7696 -55.2535 149° Southeast  Level FlightAware Approximate
05:24AM -9.8864 -55.1836 149° Southeast  Level FlightAware Approximate
05:25AM -10.0032 -55.1135 149° Southeast  Level FlightAware Approximate
05:26AM -10.1199 -55.0435 149° Southeast  Level FlightAware Approximate
05:27AM -10.2367 -54.9734 149° Southeast  Level FlightAware Approximate
05:28AM -10.3534 -54.9032 149° Southeast  Level FlightAware Approximate
05:29AM -10.4701 -54.8330 149° Southeast  Level FlightAware Approximate
05:30AM -10.5869 -54.7627 149° Southeast  Level FlightAware Approximate
05:31AM -10.7035 -54.6924 149° Southeast  Level FlightAware Approximate
05:32AM -10.8202 -54.6221 149° Southeast  Level FlightAware Approximate
05:33AM -10.9369 -54.5516 149° Southeast  Level FlightAware Approximate
05:34AM -11.0535 -54.4811 149° Southeast  Level FlightAware Approximate
05:35AM -11.1701 -54.4106 149° Southeast  Level FlightAware Approximate
05:36AM -11.2867 -54.3400 149° Southeast  Level FlightAware Approximate
05:37AM -11.4033 -54.2694 149° Southeast  Level FlightAware Approximate
05:38AM -11.5199 -54.1987 149° Southeast  Level FlightAware Approximate
05:39AM -11.6365 -54.1279 149° Southeast  Level FlightAware Approximate
05:40AM -11.7530 -54.0570 149° Southeast  Level FlightAware Approximate
05:41AM -11.8695 -53.9862 149° Southeast  Level FlightAware Approximate
05:42AM -11.9860 -53.9152 149° Southeast  Level FlightAware Approximate
05:43AM -12.1025 -53.8442 149° Southeast  Level FlightAware Approximate
05:44AM -12.2190 -53.7731 149° Southeast  Level FlightAware Approximate
05:45AM -12.3355 -53.7020 149° Southeast  Level FlightAware Approximate
05:46AM -12.4519 -53.6308 149° Southeast  Level FlightAware Approximate
05:47AM -12.5683 -53.5595 149° Southeast  Level FlightAware Approximate
05:48AM -12.6847 -53.4882 149° Southeast  Level FlightAware Approximate
05:49AM -12.8011 -53.4168 149° Southeast  Level FlightAware Approximate
05:50AM -12.9174 -53.3454 149° Southeast  Level FlightAware Approximate
05:51AM -13.0338 -53.2738 149° Southeast  Level FlightAware Approximate
05:52AM -13.1501 -53.2023 149° Southeast  Level FlightAware Approximate
05:53AM -13.2664 -53.1306 149° Southeast  Level FlightAware Approximate
05:54AM -13.3827 -53.0589 149° Southeast  Level FlightAware Approximate
05:55AM -13.4989 -52.9871 149° Southeast  Level FlightAware Approximate
05:56AM -13.6152 -52.9152 149° Southeast  Level FlightAware Approximate
05:57AM -13.7314 -52.8433 149° Southeast  Level FlightAware Approximate
05:58AM -13.8476 -52.7712 149° Southeast  Level FlightAware Approximate
05:59AM -13.9638 -52.6992 149° Southeast  Level FlightAware Approximate
06:00AM -14.0799 -52.6270 149° Southeast  Level FlightAware Approximate
06:01AM -14.1961 -52.5548 149° Southeast  Level FlightAware Approximate
06:02AM -14.3122 -52.4825 149° Southeast  Level FlightAware Approximate
06:03AM -14.4283 -52.4101 149° Southeast  Level FlightAware Approximate
06:04AM -14.5443 -52.3377 149° Southeast  Level FlightAware Approximate
06:05AM -14.6604 -52.2651 149° Southeast  Level FlightAware Approximate
06:06AM -14.7764 -52.1925 149° Southeast  Level FlightAware Approximate
06:07AM -14.8924 -52.1198 149° Southeast  Level FlightAware Approximate
06:08AM -15.0084 -52.0471 149° Southeast  Level FlightAware Approximate
06:09AM -15.1243 -51.9742 149° Southeast  Level FlightAware Approximate
06:10AM -15.2402 -51.9013 149° Southeast  Level FlightAware Approximate
06:11AM -15.3562 -51.8283 149° Southeast  Level FlightAware Approximate
06:12AM -15.4720 -51.7552 149° Southeast  Level FlightAware Approximate
06:13AM -15.5879 -51.6821 149° Southeast  Level FlightAware Approximate
06:14AM -15.7037 -51.6088 149° Southeast  Level FlightAware Approximate
06:15AM -15.8195 -51.5355 149° Southeast  Level FlightAware Approximate
06:16AM -15.9353 -51.4621 149° Southeast  Level FlightAware Approximate
06:17AM -16.0511 -51.3886 149° Southeast  Level FlightAware Approximate
06:18AM -16.1668 -51.3150 149° Southeast  Level FlightAware Approximate
06:19AM -16.2825 -51.2413 149° Southeast  Level FlightAware Approximate
06:20AM -16.3982 -51.1676 149° Southeast  Level FlightAware Approximate
06:21AM -16.5139 -51.0937 149° Southeast  Level FlightAware Approximate
06:22AM -16.6295 -51.0198 149° Southeast  Level FlightAware Approximate
06:23AM -16.7451 -50.9458 148° Southeast  Level FlightAware Approximate
06:24AM -16.8607 -50.8717 148° Southeast  Level FlightAware Approximate
06:25AM -16.9762 -50.7975 148° Southeast  Level FlightAware Approximate
06:26AM -17.0918 -50.7232 148° Southeast  Level FlightAware Approximate
06:27AM -17.2073 -50.6488 148° Southeast  Level FlightAware Approximate
06:28AM -17.3228 -50.5743 148° Southeast  Level FlightAware Approximate
06:29AM -17.4382 -50.4997 148° Southeast  Level FlightAware Approximate
06:30AM -17.5536 -50.4251 148° Southeast  Level FlightAware Approximate
06:31AM -17.6690 -50.3503 148° Southeast  Level FlightAware Approximate
06:32AM -17.7844 -50.2755 148° Southeast  Level FlightAware Approximate
06:33AM -17.8997 -50.2005 148° Southeast  Level FlightAware Approximate
06:34AM -18.0150 -50.1255 148° Southeast  Level FlightAware Approximate
06:35AM -18.1303 -50.0503 148° Southeast  Level FlightAware Approximate
06:36AM -18.2455 -49.9751 148° Southeast  Level FlightAware Approximate
06:37AM -18.3607 -49.8997 148° Southeast  Level FlightAware Approximate
06:38AM -18.4759 -49.8243 148° Southeast  Level FlightAware Approximate
06:39AM -18.5911 -49.7487 148° Southeast  Level FlightAware Approximate
06:40AM -18.7062 -49.6731 148° Southeast  Level FlightAware Approximate
06:41AM -18.8213 -49.5973 148° Southeast  Level FlightAware Approximate
06:42AM -18.9364 -49.5214 148° Southeast  Level FlightAware Approximate
06:43AM -19.0514 -49.4455 148° Southeast  Level FlightAware Approximate
06:44AM -19.1664 -49.3694 148° Southeast  Level FlightAware Approximate
06:45AM -19.2814 -49.2932 148° Southeast  Level FlightAware Approximate
06:46AM -19.3963 -49.2169 148° Southeast  Level FlightAware Approximate
06:47AM -19.5112 -49.1405 148° Southeast  Level FlightAware Approximate
06:48AM -19.6261 -49.0640 148° Southeast  Level FlightAware Approximate
06:49AM -19.7409 -48.9874 148° Southeast  Level FlightAware Approximate
06:50AM -19.8557 -48.9107 148° Southeast  Level FlightAware Approximate
06:51AM -19.9705 -48.8339 148° Southeast  Level FlightAware Approximate
06:52AM -20.0853 -48.7570 148° Southeast  Level FlightAware Approximate
06:53AM -20.2000 -48.6799 148° Southeast  Level FlightAware Approximate
06:54AM -20.3147 -48.6027 148° Southeast  Level FlightAware Approximate
06:55AM -20.4293 -48.5254 148° Southeast  Level FlightAware Approximate
06:56AM -20.5439 -48.4480 148° Southeast  Level FlightAware Approximate
06:57AM -20.6585 -48.3705 148° Southeast  Level FlightAware Approximate
06:58AM -20.7730 -48.2929 148° Southeast  Level FlightAware Approximate
06:59AM -20.8876 -48.2151 148° Southeast  Level FlightAware Approximate
07:00AM -21.0020 -48.1373 148° Southeast  Level FlightAware Approximate
07:01AM -21.1165 -48.0593 148° Southeast  Level FlightAware Approximate
07:02AM -21.2309 -47.9812 148° Southeast  Level FlightAware Approximate
07:03AM -21.3452 -47.9029 148° Southeast  Level FlightAware Approximate
07:03AM -21.8427 -46.3874 148° Southeast 492 566 31,000  Level FlightAware ADS-B (SBFZ / FOR)
07:05AM -22.0924 -46.3454 183° South 445 512 31,000 -540 Level FlightAware ADS-B (SBFZ / FOR)
07:06AM -22.2501 -46.3166 170° South 425 489 29,400 -1,560 Descending FlightAware ADS-B
07:07AM -22.3501 -46.2998 171° South 418 481 27,900 -1,740 Descending FlightAware ADS-B (SBFZ / FOR)
07:08AM -22.4816 -46.2877 175° South 409 471 26,000 -1,680 Descending FlightAware ADS-B
07:09AM -22.5718 -46.2864 179° South 402 463 24,600 -1,620 Descending FlightAware ADS-B (SBFZ / FOR)
07:10AM -22.6989 -46.2845 179° South 384 442 22,900 -1,440 Descending FlightAware ADS-B
07:11AM -22.7994 -46.2828 179° South 373 429 21,700 -1,140 Descending FlightAware ADS-B (SBFZ / FOR)
07:12AM -22.9090 -46.2809 179° South 349 402 20,700 -1,140 Descending FlightAware ADS-B
07:13AM -22.9924 -46.2795 179° South 331 381 19,500 -1,860 Descending FlightAware ADS-B (SBFZ / FOR)
07:14AM -23.0934 -46.2781 179° South 307 353 17,000 -2,220 Descending FlightAware ADS-B
07:15AM -23.1672 -46.2770 179° South 292 336 15,000 -2,040 Descending FlightAware ADS-B (SBFZ / FOR)
07:16AM -23.2527 -46.2769 180° South 255 293 12,900 -1,560 Descending FlightAware ADS-B
07:17AM -23.2888 -46.3241 230° Southwest 244 281 11,900 -900 Descending FlightAware ADS-B (SBFZ / FOR)
07:18AM -23.3117 -46.4031 252° West 246 283 11,100 -780 Descending FlightAware ADS-B
07:19AM -23.3302 -46.4661 252° West 245 282 10,400 -660 Descending FlightAware ADS-B (SBFZ / FOR)
07:20AM -23.3528 -46.5411 252° West 238 274 9,900 -780 Descending FlightAware ADS-B
07:21AM -23.3701 -46.5992 252° West 236 272 9,000 -1,200 Descending FlightAware ADS-B (SBFZ / FOR)
07:22AM -23.3979 -46.6741 248° West 227 261 7,600 -1,320 Descending FlightAware ADS-B
07:23AM -23.4369 -46.6812 189° South 204 235 6,300 -1,140 Descending FlightAware ADS-B (SBFZ / FOR)
07:24AM -23.5006 -46.6626 165° South 182 209 5,300 -840 Descending FlightAware ADS-B
07:25AM -23.4886 -46.6440 55° Northeast 179 206 4,800 -720 Descending FlightAware ADS-B (SBFZ / FOR)
07:25AM -23.4737 -46.6178 58° Northeast 177 204 4,600 -840 Descending FlightAware ADS-B
07:26AM -23.4610 -46.5694 74° East 172 198 3,700 -960 Descending FlightAware ADS-B
07:27AM -23.4489 -46.5242 74° East 166 191 2,900 -840 Descending FlightAware ADS-B
07:27AM -23.4444 -46.5078 73° East 165 190 2,700 -600 Descending FlightAware ADS-B